Aérodrome :
LOGIN :

S'inscrire | Disclaimer

   EN    FR    IT 

 










Légende :    VFR   VFR Marginal   IFR   IFR Intensif   IFR Très Intensif
Visi : 
Plafond : 
>= 8 km
>= 3000ft
5 à 8 km
1000 à 3000 ft
1500m à 5 km
500 à 1000 ft
800 à 1500m
200 à 500 ft
< 800m
< 200 ft
Symboles :   Orages  Brouillard  Fortes neiges  Fortes précipitations  Vent > 20 kt
SIGMETs :   Divers  Orages  Givrage  Turbulence  Onde Orograph.  Cendres Volcan.







- Altitude de l'aérodrome : 21 ft
- Code IATA : BJV


LTFE - Bodrum

DERNIER METAR :
  • 252120Z 14003KT 040V180 CAVOK 07/03 Q1008 NOSIG RMK RWY10 05004KT

METARs EXPIRÉS :
  • 252050Z 15004KT CAVOK 07/03 Q1008 NOSIG RMK RWY10 12003KT 080V170
  • 252020Z 11007KT CAVOK 08/03 Q1008 NOSIG RMK RWY10 11006KT 090V160
  • 251950Z 09004KT CAVOK 09/03 Q1008 NOSIG
  • 251920Z 11004KT 050V130 CAVOK 12/02 Q1008 NOSIG RMK RWY10 12003KT
  • 251850Z 19005KT CAVOK 13/02 Q1008 NOSIG

TAF TAF LTFE
Valide du 25 à 18h jusqu'au 26 à 18h UTC


251640Z 2518/2618 VRB02KT CAVOK
BECMG 2608/2610 26012KT FEW035 BKN200
BECMG 2614/2616 VRB02KT CAVOK
Pas de NOTAMs connus pour ce terrain.



MET'MAP, la Météo Aéronautique d'un coup d'oeil ! - Copyright ORBIFLY Décembre 2007 - Disclaimer

ORBIFLY MET'MAP TEAM :

Programmation & Développement : Alexandra Zaïnal
Conception & Développement : Baudouin d'Aumeries
Co-Programmation & Développement : Marc-Olivier Méhu
Soutien technique & logistique : Manuel Goepfert

Contact : metmap@orbifly.com




SOURCES & CREDITS :

   NOAA